createdAt,value
2018-06-25T00:01:20.322Z,95.00
2018-06-25T00:03:54.538Z,95.10
2018-06-25T00:06:28.794Z,95.10
2018-06-25T00:09:03.214Z,95.20
2018-06-25T00:11:37.666Z,95.10
2018-06-25T00:14:11.855Z,95.20
2018-06-25T00:16:46.142Z,95.30
2018-06-25T00:19:20.454Z,95.20
2018-06-25T00:21:54.885Z,95.10
2018-06-25T00:24:29.251Z,95.30
2018-06-25T00:27:03.489Z,95.10
2018-06-25T00:29:37.825Z,95.70
2018-06-25T00:32:12.110Z,95.10
2018-06-25T00:34:46.438Z,95.10
2018-06-25T00:37:20.694Z,95.10
2018-06-25T00:39:55.026Z,95.10
2018-06-25T00:45:03.619Z,95.20
2018-06-25T00:47:37.875Z,95.10
2018-06-25T00:50:12.266Z,95.40
2018-06-25T00:52:46.466Z,95.10
2018-06-25T00:55:20.762Z,94.80
2018-06-25T00:57:55.107Z,94.80
2018-06-25T01:00:29.465Z,95.50
2018-06-25T01:03:03.806Z,95.30
2018-06-25T01:05:38.050Z,95.40
2018-06-25T01:08:12.335Z,95.40
2018-06-25T01:13:20.706Z,95.50
2018-06-25T01:15:55.014Z,95.40
2018-06-25T01:18:29.320Z,95.30
2018-06-25T01:21:03.719Z,95.40
2018-06-25T01:23:37.987Z,95.40
2018-06-25T01:26:12.250Z,95.20
2018-06-25T01:28:46.438Z,95.20
2018-06-25T01:31:20.782Z,95.60
2018-06-25T01:33:55.468Z,95.90
2018-06-25T01:36:29.939Z,95.90
2018-06-25T01:39:07.090Z,95.50
2018-06-25T01:41:41.454Z,95.60
2018-06-25T01:46:49.731Z,95.50
2018-06-25T01:49:24.051Z,95.60
2018-06-25T01:51:58.351Z,95.60
2018-06-25T01:54:32.645Z,95.50
2018-06-25T01:57:07.054Z,95.40
2018-06-25T01:59:41.302Z,95.40
2018-06-25T02:02:15.486Z,95.50
2018-06-25T02:04:49.813Z,95.40
2018-06-25T02:07:24.035Z,95.40
2018-06-25T02:09:58.310Z,95.30
2018-06-25T02:15:07.085Z,95.50
2018-06-25T02:17:41.325Z,95.60
2018-06-25T02:20:15.642Z,95.80
2018-06-25T02:22:49.833Z,95.70
2018-06-25T02:25:24.257Z,95.60
2018-06-25T02:27:58.571Z,95.50
2018-06-25T02:30:32.871Z,95.40
2018-06-25T02:33:07.385Z,95.30
2018-06-25T02:35:41.590Z,95.50
2018-06-25T02:38:15.891Z,95.70
2018-06-25T02:40:50.373Z,95.50
2018-06-25T02:43:24.584Z,95.40
2018-06-25T02:45:58.781Z,95.60
2018-06-25T02:48:33.070Z,95.50
2018-06-25T02:53:41.602Z,95.60
2018-06-25T02:56:15.886Z,95.80
2018-06-25T02:58:50.187Z,95.70
2018-06-25T03:01:24.511Z,96.10
2018-06-25T03:03:58.747Z,96.00
2018-06-25T03:06:33.007Z,96.00
2018-06-25T03:09:08.346Z,96.10
2018-06-25T03:11:42.487Z,96.30
2018-06-25T03:14:16.835Z,96.20
2018-06-25T03:16:51.259Z,96.00
2018-06-25T03:19:25.647Z,96.20
2018-06-25T03:21:59.831Z,96.10
2018-06-25T03:24:34.055Z,95.90
2018-06-25T03:27:08.338Z,95.90
2018-06-25T03:29:42.571Z,95.90
2018-06-25T03:32:16.917Z,95.90
2018-06-25T03:34:51.201Z,95.90
2018-06-25T03:37:25.669Z,95.90
2018-06-25T03:39:59.871Z,95.80
2018-06-25T03:42:34.138Z,95.60
2018-06-25T03:45:08.404Z,95.70
2018-06-25T03:47:42.795Z,95.50
2018-06-25T03:52:51.230Z,95.80
2018-06-25T03:55:25.370Z,95.80
2018-06-25T03:57:59.777Z,95.80
2018-06-25T04:00:34.090Z,95.70
2018-06-25T04:08:16.816Z,96.00
2018-06-25T04:10:51.222Z,95.90
2018-06-25T04:13:25.495Z,95.80
2018-06-25T04:15:59.797Z,95.60
2018-06-25T04:18:33.934Z,95.60
2018-06-25T04:21:08.238Z,95.80
2018-06-25T04:23:42.501Z,96.00
2018-06-25T04:26:16.773Z,95.80
2018-06-25T04:28:51.182Z,95.80
2018-06-25T04:31:25.607Z,95.60
2018-06-25T04:34:00.045Z,95.40
2018-06-25T04:36:34.398Z,95.70
2018-06-25T04:39:09.915Z,95.80
2018-06-25T04:41:44.163Z,95.70
2018-06-25T04:44:18.503Z,95.60
2018-06-25T04:46:53.378Z,95.90
2018-06-25T04:49:27.563Z,95.70
2018-06-25T04:52:01.917Z,96.00
2018-06-25T04:54:36.158Z,95.90
2018-06-25T04:57:10.593Z,95.90
2018-06-25T04:59:45.029Z,95.90
2018-06-25T05:02:19.305Z,95.90
2018-06-25T05:04:53.691Z,95.70
2018-06-25T05:07:27.962Z,95.90
2018-06-25T05:10:02.210Z,95.90
2018-06-25T05:12:36.614Z,96.20
2018-06-25T05:15:10.926Z,96.00
2018-06-25T05:17:45.335Z,96.20
2018-06-25T05:20:19.687Z,95.90
2018-06-25T05:22:53.941Z,96.10
2018-06-25T05:25:28.236Z,95.90
2018-06-25T05:28:02.643Z,96.20
2018-06-25T05:30:36.982Z,95.60
2018-06-25T05:33:11.102Z,95.70
2018-06-25T05:35:45.572Z,95.90
2018-06-25T05:38:19.918Z,95.60
2018-06-25T05:40:54.244Z,95.50
2018-06-25T05:43:28.565Z,95.80
2018-06-25T05:46:02.882Z,95.50
2018-06-25T05:48:37.206Z,95.50
2018-06-25T05:51:11.450Z,95.30
2018-06-25T05:53:45.682Z,95.40
2018-06-25T05:56:20.040Z,95.30
2018-06-25T05:58:54.742Z,95.30
2018-06-25T06:01:29.090Z,95.10
2018-06-25T06:04:03.506Z,95.70
2018-06-25T06:06:37.777Z,95.40
2018-06-25T06:09:12.319Z,95.20
2018-06-25T06:11:46.715Z,95.40
2018-06-25T06:14:20.938Z,95.80
2018-06-25T06:16:55.366Z,95.90
2018-06-25T06:19:29.778Z,95.70
2018-06-25T06:22:04.026Z,95.90
2018-06-25T06:24:38.238Z,95.80
2018-06-25T06:27:12.495Z,96.10
2018-06-25T06:29:46.964Z,96.30
2018-06-25T06:32:21.465Z,96.50
2018-06-25T06:34:55.766Z,96.10
2018-06-25T06:37:30.056Z,96.60
2018-06-25T06:40:04.367Z,96.50
2018-06-25T06:42:38.785Z,96.50
2018-06-25T06:45:12.982Z,96.20
2018-06-25T06:47:47.281Z,96.20
2018-06-25T06:52:55.738Z,96.70
2018-06-25T06:55:29.980Z,96.70
2018-06-25T06:58:04.154Z,96.20
2018-06-25T07:00:38.375Z,96.30
2018-06-25T07:03:12.669Z,95.70
2018-06-25T07:05:46.991Z,96.10
2018-06-25T07:08:21.314Z,96.00
2018-06-25T07:10:55.738Z,95.70
2018-06-25T07:13:30.016Z,95.50
2018-06-25T07:16:04.226Z,95.80
2018-06-25T07:18:38.382Z,95.20
2018-06-25T07:21:12.620Z,95.00
2018-06-25T07:23:46.810Z,95.20
2018-06-25T07:26:22.412Z,95.50
2018-06-25T07:28:57.046Z,95.10
2018-06-25T07:31:31.214Z,95.10
2018-06-25T07:34:05.408Z,94.90
2018-06-25T07:36:39.666Z,94.70
2018-06-25T07:39:13.985Z,94.70
2018-06-25T07:41:48.240Z,94.30
2018-06-25T07:44:22.486Z,94.70
2018-06-25T07:46:56.593Z,94.50
2018-06-25T07:49:31.050Z,94.30
2018-06-25T07:52:05.309Z,94.20
2018-06-25T07:54:39.718Z,94.20
2018-06-25T07:57:14.111Z,94.10
2018-06-25T07:59:48.350Z,93.90
2018-06-25T08:02:22.634Z,94.00
2018-06-25T08:04:56.957Z,93.60
2018-06-25T08:07:31.331Z,93.30
2018-06-25T08:12:39.681Z,92.70
2018-06-25T08:15:13.878Z,92.70
2018-06-25T08:17:48.201Z,93.10
2018-06-25T08:20:22.619Z,92.80
2018-06-25T08:22:56.861Z,92.80
2018-06-25T08:25:31.090Z,92.40
2018-06-25T08:28:05.390Z,92.70
2018-06-25T08:30:39.700Z,91.80
2018-06-25T08:33:13.974Z,91.80
2018-06-25T08:35:48.282Z,90.60
2018-06-25T08:40:56.718Z,90.10
2018-06-25T08:43:31.049Z,89.00
2018-06-25T08:46:05.215Z,88.70
2018-06-25T08:48:39.471Z,88.70
2018-06-25T08:53:48.019Z,88.60
2018-06-25T08:56:22.435Z,88.20
2018-06-25T08:58:56.756Z,88.30
2018-06-25T09:01:31.065Z,86.70
2018-06-25T09:04:05.531Z,86.50
2018-06-25T09:06:39.712Z,85.40
2018-06-25T09:09:13.865Z,84.40
2018-06-25T09:11:48.182Z,84.00
2018-06-25T09:14:22.634Z,84.40
2018-06-25T09:16:57.113Z,85.10
2018-06-25T09:19:31.393Z,84.50
2018-06-25T09:22:05.887Z,83.70
2018-06-25T09:24:40.190Z,82.70
2018-06-25T09:27:14.494Z,81.00
2018-06-25T09:29:48.838Z,81.60
2018-06-25T09:32:23.091Z,81.40
2018-06-25T09:34:57.294Z,82.00
2018-06-25T09:37:31.531Z,81.00
2018-06-25T09:40:06.306Z,78.60
2018-06-25T09:42:40.697Z,80.10
2018-06-25T09:45:14.987Z,78.80
2018-06-25T09:47:49.259Z,78.80
2018-06-25T09:52:57.839Z,78.90
2018-06-25T09:55:32.167Z,78.90
2018-06-25T09:58:06.594Z,77.70
2018-06-25T10:00:46.171Z,77.40
2018-06-25T10:03:20.442Z,76.30
2018-06-25T10:05:54.905Z,76.60
2018-06-25T10:08:29.099Z,78.80
2018-06-25T10:11:03.347Z,76.40
2018-06-25T10:13:37.653Z,77.00
2018-06-25T10:16:11.990Z,77.70
2018-06-25T10:18:46.242Z,74.90
2018-06-25T10:21:20.625Z,75.30
2018-06-25T10:23:54.980Z,75.30
2018-06-25T10:26:29.277Z,73.60
2018-06-25T10:29:03.655Z,73.50
2018-06-25T10:31:37.874Z,74.70
2018-06-25T10:34:12.247Z,73.70
2018-06-25T10:36:46.682Z,73.70
2018-06-25T10:39:20.975Z,73.10
2018-06-25T10:41:55.182Z,74.10
2018-06-25T10:47:03.742Z,73.40
2018-06-25T10:49:38.205Z,73.10
2018-06-25T10:52:12.525Z,73.60
2018-06-25T10:54:46.838Z,74.60
2018-06-25T10:57:21.150Z,74.30
2018-06-25T10:59:55.698Z,74.80
2018-06-25T11:02:29.894Z,75.60
2018-06-25T11:07:38.447Z,77.70
2018-06-25T11:10:12.870Z,75.50
2018-06-25T11:15:21.453Z,75.10
2018-06-25T11:17:55.764Z,74.40
2018-06-25T11:20:30.166Z,74.90
2018-06-25T11:23:04.466Z,74.90
2018-06-25T11:25:38.744Z,73.40
2018-06-25T11:28:13.031Z,73.50
2018-06-25T11:30:47.238Z,73.40
2018-06-25T11:33:21.942Z,74.60
2018-06-25T11:35:56.283Z,74.70
2018-06-25T11:41:04.730Z,73.30
2018-06-25T11:43:39.080Z,71.20
2018-06-25T11:46:13.373Z,71.30
2018-06-25T11:48:47.761Z,71.80
2018-06-25T11:51:22.026Z,69.90
2018-06-25T11:53:56.334Z,71.50
2018-06-25T11:56:30.615Z,72.60
2018-06-25T12:01:39.314Z,73.40
2018-06-25T12:04:13.627Z,71.60
2018-06-25T12:06:47.953Z,72.00
2018-06-25T12:09:22.358Z,71.70
2018-06-25T12:11:56.744Z,72.30
2018-06-25T12:14:31.081Z,72.30
2018-06-25T12:17:05.294Z,71.50
2018-06-25T12:22:13.755Z,73.40
2018-06-25T12:24:48.010Z,72.10
2018-06-25T12:27:22.306Z,71.80
2018-06-25T12:29:56.634Z,70.80
2018-06-25T12:32:31.015Z,71.10
2018-06-25T12:35:05.343Z,72.40
2018-06-25T12:37:39.602Z,71.70
2018-06-25T12:40:13.765Z,72.30
2018-06-25T12:42:48.042Z,71.20
2018-06-25T12:45:22.442Z,71.50
2018-06-25T12:53:05.249Z,69.80
2018-06-25T12:55:39.822Z,69.50
2018-06-25T12:58:14.022Z,69.90
2018-06-25T13:00:48.314Z,68.50
2018-06-25T13:03:22.655Z,66.10
2018-06-25T13:05:56.931Z,65.90
2018-06-25T13:08:31.222Z,65.30
2018-06-25T13:11:05.389Z,65.40
2018-06-25T13:13:39.694Z,64.20
2018-06-25T13:16:13.923Z,66.00
2018-06-25T13:18:48.249Z,65.90
2018-06-25T13:21:22.512Z,65.70
2018-06-25T13:23:56.840Z,67.50
2018-06-25T13:26:31.122Z,64.30
2018-06-25T13:29:05.438Z,65.50
2018-06-25T13:31:39.738Z,66.20
2018-06-25T13:34:14.027Z,63.80
2018-06-25T13:36:48.323Z,62.70
2018-06-25T13:39:22.750Z,64.90
2018-06-25T13:41:57.010Z,65.20
2018-06-25T13:44:31.274Z,65.40
2018-06-25T13:47:05.527Z,64.80
2018-06-25T13:49:39.862Z,63.50
2018-06-25T13:52:14.015Z,63.70
2018-06-25T13:54:48.335Z,61.90
2018-06-25T13:57:22.578Z,63.00
2018-06-25T13:59:56.887Z,60.80
2018-06-25T14:02:31.258Z,61.50
2018-06-25T14:05:05.626Z,61.70
2018-06-25T14:07:39.874Z,62.80
2018-06-25T14:10:14.299Z,62.20
2018-06-25T14:12:48.574Z,62.30
2018-06-25T14:15:22.758Z,62.90
2018-06-25T14:17:57.063Z,61.10
2018-06-25T14:20:31.317Z,61.70
2018-06-25T14:23:05.762Z,62.00
2018-06-25T14:25:45.513Z,62.80
2018-06-25T14:28:25.256Z,60.40
2018-06-25T14:31:05.233Z,61.30
2018-06-25T14:33:42.601Z,62.30
2018-06-25T14:36:16.760Z,61.30
2018-06-25T14:38:51.106Z,64.40
2018-06-25T14:41:25.545Z,62.90
2018-06-25T14:43:59.926Z,62.80
2018-06-25T14:46:34.227Z,61.30
2018-06-25T14:49:08.501Z,61.70
2018-06-25T14:51:42.696Z,60.50
2018-06-25T14:54:16.990Z,62.30
2018-06-25T14:56:51.395Z,61.50
2018-06-25T14:59:25.690Z,61.40
2018-06-25T15:01:59.918Z,61.60
2018-06-25T15:04:34.180Z,62.00
2018-06-25T15:07:08.614Z,61.20
2018-06-25T15:09:42.887Z,62.30
2018-06-25T15:14:51.481Z,63.50
2018-06-25T15:17:25.621Z,64.70
2018-06-25T15:19:59.967Z,63.10
2018-06-25T15:22:34.277Z,62.50
2018-06-25T15:25:08.501Z,62.50
2018-06-25T15:27:42.807Z,62.60
2018-06-25T15:30:17.056Z,61.20
2018-06-25T15:32:51.281Z,63.00
2018-06-25T15:35:25.527Z,63.50
2018-06-25T15:37:59.824Z,62.20
2018-06-25T15:40:34.111Z,61.10
2018-06-25T15:43:08.414Z,61.80
2018-06-25T15:45:42.701Z,62.80
2018-06-25T15:48:17.154Z,63.60
2018-06-25T15:50:51.447Z,62.00
2018-06-25T15:53:25.709Z,62.10
2018-06-25T15:55:59.978Z,61.10
2018-06-25T15:58:34.266Z,59.90
2018-06-25T16:01:08.574Z,61.00
2018-06-25T16:03:42.858Z,59.60
2018-06-25T16:06:17.041Z,59.90
2018-06-25T16:08:51.266Z,60.50
2018-06-25T16:11:25.602Z,59.80
2018-06-25T16:13:59.886Z,60.80
2018-06-25T16:16:34.304Z,60.50
2018-06-25T16:19:08.626Z,59.70
2018-06-25T16:21:43.027Z,58.90
2018-06-25T16:24:17.173Z,59.30
2018-06-25T16:26:51.462Z,58.10
2018-06-25T16:29:25.793Z,57.90
2018-06-25T16:34:34.054Z,58.00
2018-06-25T16:37:08.355Z,56.80
2018-06-25T16:39:42.658Z,57.40
2018-06-25T16:42:17.066Z,57.20
2018-06-25T16:44:51.238Z,57.30
2018-06-25T16:47:25.548Z,58.00
2018-06-25T16:49:59.830Z,58.50
2018-06-25T16:55:08.391Z,58.40
2018-06-25T16:57:42.659Z,57.10
2018-06-25T17:00:16.933Z,58.00
2018-06-25T17:02:51.241Z,57.10
2018-06-25T17:05:25.651Z,58.00
2018-06-25T17:07:59.941Z,58.20
2018-06-25T17:10:34.246Z,58.00
2018-06-25T17:13:08.450Z,59.50
2018-06-25T17:15:42.710Z,59.10
2018-06-25T17:18:16.962Z,59.40
2018-06-25T17:20:51.110Z,60.20
2018-06-25T17:23:25.407Z,59.50
2018-06-25T17:26:00.150Z,59.70
2018-06-25T17:28:34.494Z,60.30
2018-06-25T17:31:08.998Z,61.50
2018-06-25T17:33:43.563Z,61.40
2018-06-25T17:36:17.922Z,62.00
2018-06-25T17:38:52.158Z,62.20
2018-06-25T17:41:26.422Z,62.70
2018-06-25T17:44:00.787Z,62.00
2018-06-25T17:46:35.030Z,61.80
2018-06-25T17:49:09.339Z,63.20
2018-06-25T17:51:43.775Z,62.50
2018-06-25T17:54:18.090Z,62.30
2018-06-25T17:56:52.530Z,62.60
2018-06-25T17:59:26.964Z,63.00
2018-06-25T18:04:35.346Z,63.90
2018-06-25T18:07:09.682Z,63.40
2018-06-25T18:09:43.906Z,62.30
2018-06-25T18:12:18.490Z,62.90
2018-06-25T18:14:52.783Z,63.10
2018-06-25T18:17:27.086Z,63.20
2018-06-25T18:20:01.514Z,64.00
2018-06-25T18:22:35.805Z,64.90
2018-06-25T18:25:10.154Z,66.30
2018-06-25T18:27:44.377Z,65.90
2018-06-25T18:30:18.636Z,66.50
2018-06-25T18:32:52.850Z,67.40
2018-06-25T18:35:27.246Z,67.60
2018-06-25T18:38:01.603Z,68.30
2018-06-25T18:40:35.881Z,69.20
2018-06-25T18:43:10.167Z,69.30
2018-06-25T18:45:44.425Z,69.70
2018-06-25T18:48:18.730Z,70.70
2018-06-25T18:50:52.966Z,70.80
2018-06-25T18:53:27.382Z,70.40
2018-06-25T18:56:01.632Z,70.70
2018-06-25T18:58:35.910Z,71.20
2018-06-25T19:01:10.144Z,71.50
2018-06-25T19:03:44.446Z,72.00
2018-06-25T19:06:18.647Z,72.20
2018-06-25T19:08:53.050Z,72.70
2018-06-25T19:11:27.187Z,72.90
2018-06-25T19:14:01.453Z,72.90
2018-06-25T19:16:35.730Z,73.70
2018-06-25T19:19:10.116Z,74.10
2018-06-25T19:21:44.528Z,74.20
2018-06-25T19:24:18.731Z,74.70
2018-06-25T19:26:53.086Z,75.00
2018-06-25T19:29:27.506Z,76.50
2018-06-25T19:32:01.712Z,76.10
2018-06-25T19:34:35.857Z,76.60
2018-06-25T19:37:10.469Z,76.20
2018-06-25T19:39:44.938Z,76.80
2018-06-25T19:42:19.094Z,76.20
2018-06-25T19:44:53.438Z,76.40
2018-06-25T19:47:27.815Z,76.60
2018-06-25T19:50:02.090Z,76.80
2018-06-25T19:52:36.488Z,76.90
2018-06-25T19:55:10.910Z,77.30
2018-06-25T19:57:45.042Z,78.10
2018-06-25T20:00:19.282Z,78.20
2018-06-25T20:02:53.627Z,79.30
2018-06-25T20:05:27.962Z,78.70
2018-06-25T20:08:02.263Z,79.00
2018-06-25T20:10:36.595Z,79.40
2018-06-25T20:13:10.974Z,79.70
2018-06-25T20:15:45.360Z,80.00
2018-06-25T20:18:19.743Z,80.20
2018-06-25T20:20:54.065Z,80.30
2018-06-25T20:23:28.366Z,80.70
2018-06-25T20:26:02.552Z,80.70
2018-06-25T20:28:36.770Z,81.60
2018-06-25T20:31:11.046Z,81.70
2018-06-25T20:33:45.455Z,81.50
2018-06-25T20:36:19.789Z,81.50
2018-06-25T20:38:54.011Z,81.70
2018-06-25T20:44:02.553Z,81.70
2018-06-25T20:46:36.842Z,81.70
2018-06-25T20:49:11.199Z,82.10
2018-06-25T20:51:45.903Z,82.40
2018-06-25T20:54:20.234Z,83.00
2018-06-25T20:56:54.603Z,82.50
2018-06-25T20:59:28.809Z,82.60
2018-06-25T21:02:03.125Z,82.30
2018-06-25T21:04:37.449Z,81.80
2018-06-25T21:07:11.711Z,81.90
2018-06-25T21:09:46.019Z,82.50
2018-06-25T21:12:20.334Z,83.10
2018-06-25T21:14:54.605Z,82.50
2018-06-25T21:17:28.854Z,82.50
2018-06-25T21:20:03.218Z,82.30
2018-06-25T21:22:38.195Z,82.40
2018-06-25T21:25:12.351Z,82.90
2018-06-25T21:27:46.611Z,82.50
2018-06-25T21:30:21.070Z,82.70
2018-06-25T21:32:55.457Z,82.60
2018-06-25T21:35:29.834Z,82.40
2018-06-25T21:38:04.094Z,82.80
2018-06-25T21:40:38.406Z,82.80
2018-06-25T21:43:12.696Z,82.90
2018-06-25T21:45:47.012Z,82.80
2018-06-25T21:48:21.332Z,82.70
2018-06-25T21:50:55.710Z,82.90
2018-06-25T21:53:29.969Z,83.30
2018-06-25T21:56:04.403Z,83.50
2018-06-25T21:58:38.667Z,83.50
2018-06-25T22:01:12.974Z,83.40
2018-06-25T22:03:47.222Z,83.30
2018-06-25T22:06:21.581Z,83.20
2018-06-25T22:08:55.959Z,83.40
2018-06-25T22:11:30.258Z,84.00
2018-06-25T22:14:04.582Z,83.90
2018-06-25T22:16:38.899Z,83.40
2018-06-25T22:19:13.058Z,83.30
2018-06-25T22:21:47.374Z,83.20
2018-06-25T22:26:55.860Z,83.70
2018-06-25T22:29:30.087Z,84.10
2018-06-25T22:32:04.346Z,84.10
2018-06-25T22:34:38.627Z,84.10
2018-06-25T22:37:12.829Z,83.90
2018-06-25T22:39:47.022Z,84.10
2018-06-25T22:42:21.357Z,84.50
2018-06-25T22:44:55.759Z,85.10
2018-06-25T22:47:30.058Z,84.90
2018-06-25T22:50:04.712Z,85.00
2018-06-25T22:52:38.999Z,85.90
2018-06-25T22:55:13.231Z,85.30
2018-06-25T22:57:47.442Z,85.20
2018-06-25T23:02:55.755Z,87.30
2018-06-25T23:05:30.018Z,87.00
2018-06-25T23:08:04.170Z,87.40
2018-06-25T23:10:38.398Z,87.50
2018-06-25T23:13:12.827Z,87.50
2018-06-25T23:15:47.087Z,87.60
2018-06-25T23:18:21.369Z,87.30
2018-06-25T23:20:55.658Z,87.20
2018-06-25T23:23:30.019Z,87.00
2018-06-25T23:26:04.273Z,86.60
2018-06-25T23:28:38.671Z,86.70
2018-06-25T23:31:12.979Z,87.80
2018-06-25T23:33:47.162Z,87.60
2018-06-25T23:36:21.563Z,87.90
2018-06-25T23:38:55.785Z,87.60
2018-06-25T23:41:30.188Z,87.80
2018-06-25T23:44:04.513Z,88.20
2018-06-25T23:46:38.768Z,88.10
2018-06-25T23:49:13.187Z,87.80
2018-06-25T23:51:47.497Z,87.50
2018-06-25T23:54:21.822Z,87.30
2018-06-25T23:56:56.027Z,86.80
2018-06-25T23:59:30.325Z,86.90
